Terminal Aerodrome Forecast
Issued by NWS

Home | Current Version | Previous Version | Text Only | Print | Product List | Glossary On
Versions: 1 2 3 4 5 6 7 8 9 10 11 12 13 14 15 16 17 18 19 20 21 22 23 24 25 26
000
FTUS42 KCAE 201100
TAFCUB
TAF
KCUB 201120Z 2012/2112 VRB03KT P6SM -RA OVC060
     FM201400 VRB03KT 6SM -RA BR BKN025
     FM202200 04004KT P6SM BKN025
     FM210400 VRB03KT 2SM BR OVC008=

USA.gov is the U.S. government's official web portal to all federal, state and local government web resources and services.